Alida, Canada
Current Conditions -  °F | °C
As of 10:00 PM on Wednesday 28 Jan 2015 (Local Time) from CYEN Reporting Station
Light Snow Light Snow  
Wind Chill: -11°   Ceiling: 900
Heat Index: -3°   Visibility: 10mi
Dew Point: -5°   Wind: 22mph
Humidity: 86%   Direction: 330°NNW
Pressure: 30.24"   Gusts: 32mph
Location:  49.38°N, 101.87°W
Report Text: CYEN 290400Z 33019G28KT 10SM -SN OVC009 M03/M05 A3024 RMK SC8FG SLP274
Loading
Personal Weather Stations






























Interactive Weather Map New forecast layout! Learn more

10-Day Weather Forecast

Advertisements
Track Severe Weather on mobile